sensor_id;sensor_type;location;lat;lon;timestamp;temperature;humidity
23873;DHT22;42884;50.718;4.630;2023-09-19T00:00:19;16.80;99.90
23873;DHT22;42884;50.718;4.630;2023-09-19T00:02:54;16.90;99.90
23873;DHT22;42884;50.718;4.630;2023-09-19T00:05:20;17.00;99.90
23873;DHT22;42884;50.718;4.630;2023-09-19T00:07:52;17.00;99.90
23873;DHT22;42884;50.718;4.630;2023-09-19T00:10:20;16.90;99.90
23873;DHT22;42884;50.718;4.630;2023-09-19T00:12:47;16.90;99.90
23873;DHT22;42884;50.718;4.630;2023-09-19T00:15:12;16.80;99.90
23873;DHT22;42884;50.718;4.630;2023-09-19T00:17:38;16.90;99.90
23873;DHT22;42884;50.718;4.630;2023-09-19T00:20:06;16.80;99.90
23873;DHT22;42884;50.718;4.630;2023-09-19T00:22:41;16.90;99.90
23873;DHT22;42884;50.718;4.630;2023-09-19T00:25:09;16.90;99.90
23873;DHT22;42884;50.718;4.630;2023-09-19T00:27:35;16.90;99.90
23873;DHT22;42884;50.718;4.630;2023-09-19T00:30:07;16.80;99.90
23873;DHT22;42884;50.718;4.630;2023-09-19T00:32:34;16.80;99.90
23873;DHT22;42884;50.718;4.630;2023-09-19T00:35:00;16.70;99.90
23873;DHT22;42884;50.718;4.630;2023-09-19T00:37:25;16.70;99.90
23873;DHT22;42884;50.718;4.630;2023-09-19T00:39:51;16.60;99.90
23873;DHT22;42884;50.718;4.630;2023-09-19T00:42:20;16.60;99.90
23873;DHT22;42884;50.718;4.630;2023-09-19T00:44:46;16.60;99.90
23873;DHT22;42884;50.718;4.630;2023-09-19T00:47:12;16.60;99.90
23873;DHT22;42884;50.718;4.630;2023-09-19T00:49:45;16.60;99.90
23873;DHT22;42884;50.718;4.630;2023-09-19T00:52:16;16.50;99.90
23873;DHT22;42884;50.718;4.630;2023-09-19T00:54:45;16.50;99.90
23873;DHT22;42884;50.718;4.630;2023-09-19T00:57:11;16.40;99.90
23873;DHT22;42884;50.718;4.630;2023-09-19T00:59:37;16.50;99.90
23873;DHT22;42884;50.718;4.630;2023-09-19T01:02:02;16.50;99.90
23873;DHT22;42884;50.718;4.630;2023-09-19T01:04:29;16.70;99.90
23873;DHT22;42884;50.718;4.630;2023-09-19T01:06:54;16.60;99.90
23873;DHT22;42884;50.718;4.630;2023-09-19T01:09:20;16.60;99.90
23873;DHT22;42884;50.718;4.630;2023-09-19T01:11:47;16.50;99.90
23873;DHT22;42884;50.718;4.630;2023-09-19T01:17:09;16.60;99.90
23873;DHT22;42884;50.718;4.630;2023-09-19T01:27:25;16.50;99.90
23873;DHT22;42884;50.718;4.630;2023-09-19T01:30:00;16.40;99.90
23873;DHT22;42884;50.718;4.630;2023-09-19T01:32:26;16.40;99.90
23873;DHT22;42884;50.718;4.630;2023-09-19T01:34:55;16.30;99.90
23873;DHT22;42884;50.718;4.630;2023-09-19T01:37:29;16.40;99.90
23873;DHT22;42884;50.718;4.630;2023-09-19T01:39:59;16.20;99.90
23873;DHT22;42884;50.718;4.630;2023-09-19T01:47:49;16.30;99.90
23873;DHT22;42884;50.718;4.630;2023-09-19T01:53:02;16.30;99.90
23873;DHT22;42884;50.718;4.630;2023-09-19T01:55:30;16.30;99.90
23873;DHT22;42884;50.718;4.630;2023-09-19T01:58:08;16.30;99.90
23873;DHT22;42884;50.718;4.630;2023-09-19T02:00:38;16.30;99.90
23873;DHT22;42884;50.718;4.630;2023-09-19T02:03:05;16.20;99.90
23873;DHT22;42884;50.718;4.630;2023-09-19T02:05:31;16.30;99.90
23873;DHT22;42884;50.718;4.630;2023-09-19T02:07:58;16.20;99.90
23873;DHT22;42884;50.718;4.630;2023-09-19T02:10:24;16.10;99.90
23873;DHT22;42884;50.718;4.630;2023-09-19T02:12:50;16.20;99.90
23873;DHT22;42884;50.718;4.630;2023-09-19T02:15:15;16.10;99.90
23873;DHT22;42884;50.718;4.630;2023-09-19T02:17:42;16.20;99.90
23873;DHT22;42884;50.718;4.630;2023-09-19T02:20:08;16.00;99.90
23873;DHT22;42884;50.718;4.630;2023-09-19T02:22:35;16.10;99.90
23873;DHT22;42884;50.718;4.630;2023-09-19T02:25:01;16.00;99.90
23873;DHT22;42884;50.718;4.630;2023-09-19T02:27:27;16.10;99.90
23873;DHT22;42884;50.718;4.630;2023-09-19T02:29:52;16.10;99.90
23873;DHT22;42884;50.718;4.630;2023-09-19T02:32:18;16.10;99.90
23873;DHT22;42884;50.718;4.630;2023-09-19T02:34:43;16.00;99.90
23873;DHT22;42884;50.718;4.630;2023-09-19T02:37:10;16.00;99.90
23873;DHT22;42884;50.718;4.630;2023-09-19T02:39:35;16.00;99.90
23873;DHT22;42884;50.718;4.630;2023-09-19T02:42:01;16.00;99.90
23873;DHT22;42884;50.718;4.630;2023-09-19T02:44:29;16.00;99.90
23873;DHT22;42884;50.718;4.630;2023-09-19T02:46:54;15.90;99.90
23873;DHT22;42884;50.718;4.630;2023-09-19T02:49:20;15.90;99.90
23873;DHT22;42884;50.718;4.630;2023-09-19T02:51:46;15.80;99.90
23873;DHT22;42884;50.718;4.630;2023-09-19T02:54:12;15.90;99.90
23873;DHT22;42884;50.718;4.630;2023-09-19T02:56:39;15.90;99.90
23873;DHT22;42884;50.718;4.630;2023-09-19T02:59:04;16.00;99.90
23873;DHT22;42884;50.718;4.630;2023-09-19T03:01:31;16.10;99.90
23873;DHT22;42884;50.718;4.630;2023-09-19T03:03:57;16.00;99.90
23873;DHT22;42884;50.718;4.630;2023-09-19T03:06:23;16.00;99.90
23873;DHT22;42884;50.718;4.630;2023-09-19T03:08:49;16.10;99.90
23873;DHT22;42884;50.718;4.630;2023-09-19T03:11:17;16.10;99.90
23873;DHT22;42884;50.718;4.630;2023-09-19T03:13:50;16.10;99.90
23873;DHT22;42884;50.718;4.630;2023-09-19T03:16:16;16.10;99.90
23873;DHT22;42884;50.718;4.630;2023-09-19T03:18:41;15.90;99.90
23873;DHT22;42884;50.718;4.630;2023-09-19T03:21:07;15.80;99.90
23873;DHT22;42884;50.718;4.630;2023-09-19T03:23:32;15.80;99.90
23873;DHT22;42884;50.718;4.630;2023-09-19T03:25:58;15.80;99.90
23873;DHT22;42884;50.718;4.630;2023-09-19T03:28:24;15.80;99.90
23873;DHT22;42884;50.718;4.630;2023-09-19T03:33:25;15.70;99.90
23873;DHT22;42884;50.718;4.630;2023-09-19T03:35:54;15.80;99.90
23873;DHT22;42884;50.718;4.630;2023-09-19T03:38:19;15.90;99.90
23873;DHT22;42884;50.718;4.630;2023-09-19T03:40:45;15.90;99.90
23873;DHT22;42884;50.718;4.630;2023-09-19T03:43:11;15.90;99.90
23873;DHT22;42884;50.718;4.630;2023-09-19T03:45:36;15.90;99.90
23873;DHT22;42884;50.718;4.630;2023-09-19T03:48:10;15.90;99.90
23873;DHT22;42884;50.718;4.630;2023-09-19T03:50:36;16.00;99.90
23873;DHT22;42884;50.718;4.630;2023-09-19T03:53:01;16.00;99.90
23873;DHT22;42884;50.718;4.630;2023-09-19T03:55:27;16.00;99.90
23873;DHT22;42884;50.718;4.630;2023-09-19T03:57:53;15.90;99.90
23873;DHT22;42884;50.718;4.630;2023-09-19T04:00:19;15.80;99.90
23873;DHT22;42884;50.718;4.630;2023-09-19T04:02:51;15.90;99.90
23873;DHT22;42884;50.718;4.630;2023-09-19T04:05:17;15.80;99.90
23873;DHT22;42884;50.718;4.630;2023-09-19T04:07:42;15.80;99.90
23873;DHT22;42884;50.718;4.630;2023-09-19T04:10:08;15.80;99.90
23873;DHT22;42884;50.718;4.630;2023-09-19T04:12:35;15.70;99.90
23873;DHT22;42884;50.718;4.630;2023-09-19T04:15:01;15.70;99.90
23873;DHT22;42884;50.718;4.630;2023-09-19T04:17:26;15.60;99.90
23873;DHT22;42884;50.718;4.630;2023-09-19T04:19:52;15.70;99.90
23873;DHT22;42884;50.718;4.630;2023-09-19T04:22:18;15.60;99.90
23873;DHT22;42884;50.718;4.630;2023-09-19T04:24:44;15.50;99.90
23873;DHT22;42884;50.718;4.630;2023-09-19T04:27:10;15.50;99.90
23873;DHT22;42884;50.718;4.630;2023-09-19T04:29:37;15.60;99.90
23873;DHT22;42884;50.718;4.630;2023-09-19T04:32:04;15.50;99.90
23873;DHT22;42884;50.718;4.630;2023-09-19T04:34:31;15.50;99.90
23873;DHT22;42884;50.718;4.630;2023-09-19T04:36:56;15.40;99.90
23873;DHT22;42884;50.718;4.630;2023-09-19T04:39:23;15.50;99.90
23873;DHT22;42884;50.718;4.630;2023-09-19T04:41:51;15.50;99.90
23873;DHT22;42884;50.718;4.630;2023-09-19T04:44:16;15.60;99.90
23873;DHT22;42884;50.718;4.630;2023-09-19T04:46:43;15.60;99.90
23873;DHT22;42884;50.718;4.630;2023-09-19T04:49:09;15.60;99.90
23873;DHT22;42884;50.718;4.630;2023-09-19T04:51:35;15.50;99.90
23873;DHT22;42884;50.718;4.630;2023-09-19T04:54:01;15.50;99.90
23873;DHT22;42884;50.718;4.630;2023-09-19T04:56:28;15.50;99.90
23873;DHT22;42884;50.718;4.630;2023-09-19T04:58:54;15.50;99.90
23873;DHT22;42884;50.718;4.630;2023-09-19T05:01:19;15.50;99.90
23873;DHT22;42884;50.718;4.630;2023-09-19T05:03:48;15.50;99.90
23873;DHT22;42884;50.718;4.630;2023-09-19T05:06:20;15.40;99.90
23873;DHT22;42884;50.718;4.630;2023-09-19T05:08:49;15.30;99.90
23873;DHT22;42884;50.718;4.630;2023-09-19T05:11:18;15.30;99.90
23873;DHT22;42884;50.718;4.630;2023-09-19T05:13:44;15.40;99.90
23873;DHT22;42884;50.718;4.630;2023-09-19T05:16:09;15.40;99.90
23873;DHT22;42884;50.718;4.630;2023-09-19T05:18:35;15.30;99.90
23873;DHT22;42884;50.718;4.630;2023-09-19T05:21:02;15.30;99.90
23873;DHT22;42884;50.718;4.630;2023-09-19T05:23:27;15.30;99.90
23873;DHT22;42884;50.718;4.630;2023-09-19T05:25:54;15.10;99.90
23873;DHT22;42884;50.718;4.630;2023-09-19T05:28:20;15.10;99.90
23873;DHT22;42884;50.718;4.630;2023-09-19T05:30:45;15.20;99.90
23873;DHT22;42884;50.718;4.630;2023-09-19T05:33:12;15.30;99.90
23873;DHT22;42884;50.718;4.630;2023-09-19T05:35:38;15.20;99.90
23873;DHT22;42884;50.718;4.630;2023-09-19T05:38:07;15.30;99.90
23873;DHT22;42884;50.718;4.630;2023-09-19T05:40:34;15.30;99.90
23873;DHT22;42884;50.718;4.630;2023-09-19T05:43:00;15.40;99.90
23873;DHT22;42884;50.718;4.630;2023-09-19T05:45:26;15.40;99.90
23873;DHT22;42884;50.718;4.630;2023-09-19T05:47:52;15.30;99.90
23873;DHT22;42884;50.718;4.630;2023-09-19T05:50:29;15.30;99.90
23873;DHT22;42884;50.718;4.630;2023-09-19T05:52:55;15.50;99.90
23873;DHT22;42884;50.718;4.630;2023-09-19T05:55:21;15.50;99.90
23873;DHT22;42884;50.718;4.630;2023-09-19T05:57:50;15.50;99.90
23873;DHT22;42884;50.718;4.630;2023-09-19T06:00:17;15.40;99.90
23873;DHT22;42884;50.718;4.630;2023-09-19T06:02:43;15.40;99.90
23873;DHT22;42884;50.718;4.630;2023-09-19T06:05:10;15.40;99.90
23873;DHT22;42884;50.718;4.630;2023-09-19T06:07:36;15.40;99.90
23873;DHT22;42884;50.718;4.630;2023-09-19T06:10:03;15.40;99.90
23873;DHT22;42884;50.718;4.630;2023-09-19T06:12:31;15.30;99.90
23873;DHT22;42884;50.718;4.630;2023-09-19T06:14:58;15.40;99.90
23873;DHT22;42884;50.718;4.630;2023-09-19T06:17:24;15.30;99.90
23873;DHT22;42884;50.718;4.630;2023-09-19T06:19:52;15.40;99.90
23873;DHT22;42884;50.718;4.630;2023-09-19T06:22:17;15.40;99.90
23873;DHT22;42884;50.718;4.630;2023-09-19T06:24:44;15.40;99.90
23873;DHT22;42884;50.718;4.630;2023-09-19T06:27:09;15.50;99.90
23873;DHT22;42884;50.718;4.630;2023-09-19T06:29:35;15.50;99.90
23873;DHT22;42884;50.718;4.630;2023-09-19T06:32:06;15.60;99.90
23873;DHT22;42884;50.718;4.630;2023-09-19T06:34:32;15.60;99.90
23873;DHT22;42884;50.718;4.630;2023-09-19T06:36:58;15.60;99.90
23873;DHT22;42884;50.718;4.630;2023-09-19T06:39:24;15.60;99.90
23873;DHT22;42884;50.718;4.630;2023-09-19T06:41:51;15.60;99.90
23873;DHT22;42884;50.718;4.630;2023-09-19T06:44:19;15.60;99.90
23873;DHT22;42884;50.718;4.630;2023-09-19T06:46:47;15.70;99.90
23873;DHT22;42884;50.718;4.630;2023-09-19T06:49:15;15.70;99.90
23873;DHT22;42884;50.718;4.630;2023-09-19T06:51:41;15.70;99.90
23873;DHT22;42884;50.718;4.630;2023-09-19T06:54:07;15.80;99.90
23873;DHT22;42884;50.718;4.630;2023-09-19T06:56:33;15.80;99.90
23873;DHT22;42884;50.718;4.630;2023-09-19T06:58:58;15.80;99.90
23873;DHT22;42884;50.718;4.630;2023-09-19T07:01:24;15.80;99.90
23873;DHT22;42884;50.718;4.630;2023-09-19T07:03:50;15.70;99.90
23873;DHT22;42884;50.718;4.630;2023-09-19T07:06:16;15.70;99.90
23873;DHT22;42884;50.718;4.630;2023-09-19T07:08:42;15.70;99.90
23873;DHT22;42884;50.718;4.630;2023-09-19T07:11:08;15.80;99.90
23873;DHT22;42884;50.718;4.630;2023-09-19T07:13:34;15.90;99.90
23873;DHT22;42884;50.718;4.630;2023-09-19T07:16:00;16.10;99.90
23873;DHT22;42884;50.718;4.630;2023-09-19T07:18:26;16.10;99.90
23873;DHT22;42884;50.718;4.630;2023-09-19T07:20:56;16.10;99.90
23873;DHT22;42884;50.718;4.630;2023-09-19T07:23:26;16.20;99.90
23873;DHT22;42884;50.718;4.630;2023-09-19T07:25:52;16.10;99.90
23873;DHT22;42884;50.718;4.630;2023-09-19T07:28:17;16.20;99.90
23873;DHT22;42884;50.718;4.630;2023-09-19T07:30:43;16.30;99.90
23873;DHT22;42884;50.718;4.630;2023-09-19T07:33:09;16.30;99.90
23873;DHT22;42884;50.718;4.630;2023-09-19T07:35:37;16.30;99.90
23873;DHT22;42884;50.718;4.630;2023-09-19T07:38:07;16.30;99.90
23873;DHT22;42884;50.718;4.630;2023-09-19T07:40:33;16.30;99.90
23873;DHT22;42884;50.718;4.630;2023-09-19T07:42:58;16.30;99.90
23873;DHT22;42884;50.718;4.630;2023-09-19T07:45:27;16.40;99.90
23873;DHT22;42884;50.718;4.630;2023-09-19T07:47:55;16.50;99.90
23873;DHT22;42884;50.718;4.630;2023-09-19T07:50:20;16.70;99.90
23873;DHT22;42884;50.718;4.630;2023-09-19T07:52:46;16.80;99.90
23873;DHT22;42884;50.718;4.630;2023-09-19T07:55:12;16.70;99.90
23873;DHT22;42884;50.718;4.630;2023-09-19T07:57:41;16.80;99.90
23873;DHT22;42884;50.718;4.630;2023-09-19T08:00:07;16.90;99.90
23873;DHT22;42884;50.718;4.630;2023-09-19T08:02:37;16.90;99.90
23873;DHT22;42884;50.718;4.630;2023-09-19T08:05:06;16.90;99.90
23873;DHT22;42884;50.718;4.630;2023-09-19T08:07:33;16.90;99.90
23873;DHT22;42884;50.718;4.630;2023-09-19T08:09:58;16.90;99.90
23873;DHT22;42884;50.718;4.630;2023-09-19T08:12:24;16.80;99.90
23873;DHT22;42884;50.718;4.630;2023-09-19T08:14:50;16.90;99.90
23873;DHT22;42884;50.718;4.630;2023-09-19T08:17:16;17.00;99.90
23873;DHT22;42884;50.718;4.630;2023-09-19T08:19:41;17.20;99.90
23873;DHT22;42884;50.718;4.630;2023-09-19T08:22:10;17.20;99.90
23873;DHT22;42884;50.718;4.630;2023-09-19T08:24:36;17.40;99.90
23873;DHT22;42884;50.718;4.630;2023-09-19T08:27:03;17.40;99.90
23873;DHT22;42884;50.718;4.630;2023-09-19T08:29:30;17.40;99.90
23873;DHT22;42884;50.718;4.630;2023-09-19T08:31:56;17.50;99.90
23873;DHT22;42884;50.718;4.630;2023-09-19T08:34:22;17.60;99.90
23873;DHT22;42884;50.718;4.630;2023-09-19T08:36:50;17.70;99.90
23873;DHT22;42884;50.718;4.630;2023-09-19T08:39:15;17.70;99.90
23873;DHT22;42884;50.718;4.630;2023-09-19T08:41:42;17.60;99.90
23873;DHT22;42884;50.718;4.630;2023-09-19T08:44:07;17.70;99.90
23873;DHT22;42884;50.718;4.630;2023-09-19T08:46:35;17.70;99.90
23873;DHT22;42884;50.718;4.630;2023-09-19T08:49:04;17.80;99.90
23873;DHT22;42884;50.718;4.630;2023-09-19T08:51:42;17.90;99.90
23873;DHT22;42884;50.718;4.630;2023-09-19T08:54:28;18.00;99.90
23873;DHT22;42884;50.718;4.630;2023-09-19T08:56:58;18.00;99.90
23873;DHT22;42884;50.718;4.630;2023-09-19T08:59:27;18.00;99.90
23873;DHT22;42884;50.718;4.630;2023-09-19T09:01:54;18.10;99.90
23873;DHT22;42884;50.718;4.630;2023-09-19T09:04:20;18.20;99.90
23873;DHT22;42884;50.718;4.630;2023-09-19T09:06:47;18.40;99.90
23873;DHT22;42884;50.718;4.630;2023-09-19T09:09:18;18.50;99.90
23873;DHT22;42884;50.718;4.630;2023-09-19T09:11:44;18.80;99.90
23873;DHT22;42884;50.718;4.630;2023-09-19T09:14:09;19.10;99.90
23873;DHT22;42884;50.718;4.630;2023-09-19T09:16:36;19.30;99.90
23873;DHT22;42884;50.718;4.630;2023-09-19T09:19:02;19.50;99.90
23873;DHT22;42884;50.718;4.630;2023-09-19T09:21:27;19.80;99.90
23873;DHT22;42884;50.718;4.630;2023-09-19T09:23:53;19.90;99.90
23873;DHT22;42884;50.718;4.630;2023-09-19T09:26:40;20.00;99.90
23873;DHT22;42884;50.718;4.630;2023-09-19T09:29:06;20.30;99.90
23873;DHT22;42884;50.718;4.630;2023-09-19T09:31:31;20.70;99.90
23873;DHT22;42884;50.718;4.630;2023-09-19T09:33:57;20.70;99.90
23873;DHT22;42884;50.718;4.630;2023-09-19T09:36:35;20.80;99.90
23873;DHT22;42884;50.718;4.630;2023-09-19T09:39:02;20.50;99.90
23873;DHT22;42884;50.718;4.630;2023-09-19T09:41:41;20.30;99.90
23873;DHT22;42884;50.718;4.630;2023-09-19T09:44:25;20.40;99.90
23873;DHT22;42884;50.718;4.630;2023-09-19T09:46:52;20.50;99.90
23873;DHT22;42884;50.718;4.630;2023-09-19T09:49:25;20.50;99.90
23873;DHT22;42884;50.718;4.630;2023-09-19T09:52:01;20.80;99.90
23873;DHT22;42884;50.718;4.630;2023-09-19T09:54:31;21.00;99.90
23873;DHT22;42884;50.718;4.630;2023-09-19T09:57:02;20.90;99.90
23873;DHT22;42884;50.718;4.630;2023-09-19T09:59:55;20.80;99.90
23873;DHT22;42884;50.718;4.630;2023-09-19T10:02:30;20.70;99.90
23873;DHT22;42884;50.718;4.630;2023-09-19T10:05:11;20.50;99.90
23873;DHT22;42884;50.718;4.630;2023-09-19T10:07:52;20.40;99.90
23873;DHT22;42884;50.718;4.630;2023-09-19T10:10:35;20.40;99.90
23873;DHT22;42884;50.718;4.630;2023-09-19T10:13:19;20.30;99.90
23873;DHT22;42884;50.718;4.630;2023-09-19T10:15:49;20.00;99.90
23873;DHT22;42884;50.718;4.630;2023-09-19T10:18:23;19.90;99.90
23873;DHT22;42884;50.718;4.630;2023-09-19T10:20:49;20.00;99.90
23873;DHT22;42884;50.718;4.630;2023-09-19T10:23:19;20.00;99.90
23873;DHT22;42884;50.718;4.630;2023-09-19T10:25:49;20.00;99.90
23873;DHT22;42884;50.718;4.630;2023-09-19T10:28:16;20.20;99.90
23873;DHT22;42884;50.718;4.630;2023-09-19T10:30:47;20.20;99.90
23873;DHT22;42884;50.718;4.630;2023-09-19T10:33:13;20.40;99.90
23873;DHT22;42884;50.718;4.630;2023-09-19T10:35:42;20.70;99.90
23873;DHT22;42884;50.718;4.630;2023-09-19T10:38:09;20.90;99.90
23873;DHT22;42884;50.718;4.630;2023-09-19T10:40:35;21.10;99.90
23873;DHT22;42884;50.718;4.630;2023-09-19T10:43:03;20.90;99.90
23873;DHT22;42884;50.718;4.630;2023-09-19T10:45:32;20.70;99.90
23873;DHT22;42884;50.718;4.630;2023-09-19T10:47:59;21.10;99.90
23873;DHT22;42884;50.718;4.630;2023-09-19T10:50:25;21.10;99.90
23873;DHT22;42884;50.718;4.630;2023-09-19T10:52:53;21.40;99.90
23873;DHT22;42884;50.718;4.630;2023-09-19T10:55:24;21.40;99.90
23873;DHT22;42884;50.718;4.630;2023-09-19T10:57:50;21.50;99.90
23873;DHT22;42884;50.718;4.630;2023-09-19T11:00:17;21.40;99.90
23873;DHT22;42884;50.718;4.630;2023-09-19T11:03:34;21.20;99.90
23873;DHT22;42884;50.718;4.630;2023-09-19T11:05:36;21.10;99.90
23873;DHT22;42884;50.718;4.630;2023-09-19T11:08:09;21.00;99.90
23873;DHT22;42884;50.718;4.630;2023-09-19T11:10:46;20.90;99.90
23873;DHT22;42884;50.718;4.630;2023-09-19T11:24:29;20.70;99.90
23873;DHT22;42884;50.718;4.630;2023-09-19T11:26:48;20.50;99.90
23873;DHT22;42884;50.718;4.630;2023-09-19T11:29:26;20.40;99.90
23873;DHT22;42884;50.718;4.630;2023-09-19T11:31:52;20.60;99.90
23873;DHT22;42884;50.718;4.630;2023-09-19T11:42:45;20.90;99.90
23873;DHT22;42884;50.718;4.630;2023-09-19T11:47:57;21.10;99.90
23873;DHT22;42884;50.718;4.630;2023-09-19T11:50:23;21.40;99.90
23873;DHT22;42884;50.718;4.630;2023-09-19T11:52:50;21.50;99.90
23873;DHT22;42884;50.718;4.630;2023-09-19T11:55:16;21.50;99.90
23873;DHT22;42884;50.718;4.630;2023-09-19T11:57:47;21.60;99.90
23873;DHT22;42884;50.718;4.630;2023-09-19T12:00:19;21.50;99.90
23873;DHT22;42884;50.718;4.630;2023-09-19T12:02:47;21.60;99.90
23873;DHT22;42884;50.718;4.630;2023-09-19T12:05:13;21.70;99.90
23873;DHT22;42884;50.718;4.630;2023-09-19T12:07:43;21.60;99.90
23873;DHT22;42884;50.718;4.630;2023-09-19T12:10:13;21.50;99.90
23873;DHT22;42884;50.718;4.630;2023-09-19T12:12:40;21.40;99.90
23873;DHT22;42884;50.718;4.630;2023-09-19T12:15:12;21.50;99.90
23873;DHT22;42884;50.718;4.630;2023-09-19T12:17:41;21.70;99.90
23873;DHT22;42884;50.718;4.630;2023-09-19T12:20:10;21.90;99.90
23873;DHT22;42884;50.718;4.630;2023-09-19T12:22:43;22.10;99.90
23873;DHT22;42884;50.718;4.630;2023-09-19T12:25:12;21.70;99.90
23873;DHT22;42884;50.718;4.630;2023-09-19T12:27:44;21.80;99.90
23873;DHT22;42884;50.718;4.630;2023-09-19T12:30:12;21.80;99.90
23873;DHT22;42884;50.718;4.630;2023-09-19T12:32:40;21.60;99.90
23873;DHT22;42884;50.718;4.630;2023-09-19T12:35:08;21.40;99.90
23873;DHT22;42884;50.718;4.630;2023-09-19T12:37:43;21.40;99.90
23873;DHT22;42884;50.718;4.630;2023-09-19T12:40:11;21.30;99.90
23873;DHT22;42884;50.718;4.630;2023-09-19T12:42:43;21.30;99.90
23873;DHT22;42884;50.718;4.630;2023-09-19T12:45:10;21.30;99.90
23873;DHT22;42884;50.718;4.630;2023-09-19T12:47:39;21.30;99.90
23873;DHT22;42884;50.718;4.630;2023-09-19T12:50:06;21.40;99.90
23873;DHT22;42884;50.718;4.630;2023-09-19T12:52:35;21.50;99.90
23873;DHT22;42884;50.718;4.630;2023-09-19T12:55:01;21.10;99.90
23873;DHT22;42884;50.718;4.630;2023-09-19T12:57:28;21.00;99.90
23873;DHT22;42884;50.718;4.630;2023-09-19T12:59:53;20.80;99.90
23873;DHT22;42884;50.718;4.630;2023-09-19T13:02:20;20.70;99.90
23873;DHT22;42884;50.718;4.630;2023-09-19T13:04:52;20.60;99.90
23873;DHT22;42884;50.718;4.630;2023-09-19T13:10:04;20.40;99.90
23873;DHT22;42884;50.718;4.630;2023-09-19T13:12:39;20.50;99.90
23873;DHT22;42884;50.718;4.630;2023-09-19T13:15:09;20.50;99.90
23873;DHT22;42884;50.718;4.630;2023-09-19T13:17:47;20.60;99.90
23873;DHT22;42884;50.718;4.630;2023-09-19T13:20:22;20.50;99.90
23873;DHT22;42884;50.718;4.630;2023-09-19T13:22:53;20.50;99.90
23873;DHT22;42884;50.718;4.630;2023-09-19T13:25:20;20.70;99.90
23873;DHT22;42884;50.718;4.630;2023-09-19T13:27:55;20.90;99.90
23873;DHT22;42884;50.718;4.630;2023-09-19T13:30:23;20.90;99.90
23873;DHT22;42884;50.718;4.630;2023-09-19T13:33:08;20.80;99.90
23873;DHT22;42884;50.718;4.630;2023-09-19T13:35:35;20.50;99.90
23873;DHT22;42884;50.718;4.630;2023-09-19T13:38:02;20.30;99.90
23873;DHT22;42884;50.718;4.630;2023-09-19T13:40:27;20.50;99.90
23873;DHT22;42884;50.718;4.630;2023-09-19T13:42:56;20.50;99.90
23873;DHT22;42884;50.718;4.630;2023-09-19T13:45:22;20.60;99.90
23873;DHT22;42884;50.718;4.630;2023-09-19T13:47:49;20.50;99.90
23873;DHT22;42884;50.718;4.630;2023-09-19T13:50:15;20.30;99.90
23873;DHT22;42884;50.718;4.630;2023-09-19T13:52:42;20.30;99.90
23873;DHT22;42884;50.718;4.630;2023-09-19T13:55:08;20.30;99.90
23873;DHT22;42884;50.718;4.630;2023-09-19T13:57:33;20.20;99.90
23873;DHT22;42884;50.718;4.630;2023-09-19T13:59:59;20.20;99.90
23873;DHT22;42884;50.718;4.630;2023-09-19T14:02:25;20.10;99.90
23873;DHT22;42884;50.718;4.630;2023-09-19T14:04:51;20.10;99.90
23873;DHT22;42884;50.718;4.630;2023-09-19T14:07:16;20.10;99.90
23873;DHT22;42884;50.718;4.630;2023-09-19T14:09:44;20.20;99.90
23873;DHT22;42884;50.718;4.630;2023-09-19T14:12:09;20.20;99.90
23873;DHT22;42884;50.718;4.630;2023-09-19T14:14:35;20.20;99.90
23873;DHT22;42884;50.718;4.630;2023-09-19T14:17:03;20.30;99.90
23873;DHT22;42884;50.718;4.630;2023-09-19T14:19:28;20.50;99.90
23873;DHT22;42884;50.718;4.630;2023-09-19T14:21:54;20.60;99.90
23873;DHT22;42884;50.718;4.630;2023-09-19T14:24:22;20.70;99.90
23873;DHT22;42884;50.718;4.630;2023-09-19T14:26:48;20.70;99.90
23873;DHT22;42884;50.718;4.630;2023-09-19T14:29:15;20.60;99.90
23873;DHT22;42884;50.718;4.630;2023-09-19T14:31:41;20.50;99.90
23873;DHT22;42884;50.718;4.630;2023-09-19T14:34:09;20.50;99.90
23873;DHT22;42884;50.718;4.630;2023-09-19T14:36:36;20.40;99.90
23873;DHT22;42884;50.718;4.630;2023-09-19T14:39:01;20.30;99.90
23873;DHT22;42884;50.718;4.630;2023-09-19T14:41:27;20.40;99.90
23873;DHT22;42884;50.718;4.630;2023-09-19T14:43:53;20.40;99.90
23873;DHT22;42884;50.718;4.630;2023-09-19T14:46:20;20.50;99.90
23873;DHT22;42884;50.718;4.630;2023-09-19T14:48:46;20.50;99.90
23873;DHT22;42884;50.718;4.630;2023-09-19T14:51:14;20.40;99.90
23873;DHT22;42884;50.718;4.630;2023-09-19T14:53:40;20.30;99.90
23873;DHT22;42884;50.718;4.630;2023-09-19T14:56:09;20.40;99.90
23873;DHT22;42884;50.718;4.630;2023-09-19T14:58:36;20.50;99.90
23873;DHT22;42884;50.718;4.630;2023-09-19T15:03:30;20.80;99.90
23873;DHT22;42884;50.718;4.630;2023-09-19T15:05:59;20.90;99.90
23873;DHT22;42884;50.718;4.630;2023-09-19T15:08:25;20.90;99.90
23873;DHT22;42884;50.718;4.630;2023-09-19T15:10:51;21.00;99.90
23873;DHT22;42884;50.718;4.630;2023-09-19T15:13:18;21.00;99.90
23873;DHT22;42884;50.718;4.630;2023-09-19T15:15:44;20.90;99.90
23873;DHT22;42884;50.718;4.630;2023-09-19T15:18:12;20.90;99.90
23873;DHT22;42884;50.718;4.630;2023-09-19T15:20:44;20.90;99.90
23873;DHT22;42884;50.718;4.630;2023-09-19T15:23:10;21.00;99.90
23873;DHT22;42884;50.718;4.630;2023-09-19T15:25:36;21.00;99.90
23873;DHT22;42884;50.718;4.630;2023-09-19T15:28:02;21.00;99.90
23873;DHT22;42884;50.718;4.630;2023-09-19T15:30:39;20.90;99.90
23873;DHT22;42884;50.718;4.630;2023-09-19T15:33:05;20.80;99.90
23873;DHT22;42884;50.718;4.630;2023-09-19T15:35:30;20.70;99.90
23873;DHT22;42884;50.718;4.630;2023-09-19T15:37:56;20.50;99.90
23873;DHT22;42884;50.718;4.630;2023-09-19T15:40:23;20.50;99.90
23873;DHT22;42884;50.718;4.630;2023-09-19T15:42:49;20.50;99.90
23873;DHT22;42884;50.718;4.630;2023-09-19T15:45:15;20.30;99.90
23873;DHT22;42884;50.718;4.630;2023-09-19T15:47:41;20.30;99.90
23873;DHT22;42884;50.718;4.630;2023-09-19T15:50:07;20.40;99.90
23873;DHT22;42884;50.718;4.630;2023-09-19T15:52:35;20.30;99.90
23873;DHT22;42884;50.718;4.630;2023-09-19T15:55:04;20.10;99.90
23873;DHT22;42884;50.718;4.630;2023-09-19T15:57:30;20.10;99.90
23873;DHT22;42884;50.718;4.630;2023-09-19T15:59:56;20.00;99.90
23873;DHT22;42884;50.718;4.630;2023-09-19T16:02:22;20.10;99.90
23873;DHT22;42884;50.718;4.630;2023-09-19T16:04:48;20.00;99.90
23873;DHT22;42884;50.718;4.630;2023-09-19T16:07:13;20.00;99.90
23873;DHT22;42884;50.718;4.630;2023-09-19T16:09:40;20.10;99.90
23873;DHT22;42884;50.718;4.630;2023-09-19T16:12:07;20.10;99.90
23873;DHT22;42884;50.718;4.630;2023-09-19T16:14:34;20.00;99.90
23873;DHT22;42884;50.718;4.630;2023-09-19T16:17:00;19.90;99.90
23873;DHT22;42884;50.718;4.630;2023-09-19T16:19:27;19.90;99.90
23873;DHT22;42884;50.718;4.630;2023-09-19T16:21:53;19.90;99.90